createdAt,value
2023-04-02T00:05:51.030Z,93.07
2023-04-02T00:20:50.160Z,91.93
2023-04-02T00:35:50.101Z,91.97
2023-04-02T00:50:49.956Z,90.93
2023-04-02T01:05:49.684Z,90.52
2023-04-02T01:20:49.529Z,89.17
2023-04-02T01:35:49.455Z,88.27
2023-04-02T01:50:49.262Z,87.43
2023-04-02T02:05:49.038Z,88.48
2023-04-02T02:20:48.887Z,85.98
2023-04-02T02:35:48.749Z,85.56
2023-04-02T02:50:48.578Z,86.40
2023-04-02T03:05:48.419Z,86.29
2023-04-02T03:20:48.257Z,86.81
2023-04-02T03:35:48.127Z,85.77
2023-04-02T03:50:47.945Z,85.14
2023-04-02T04:05:47.778Z,86.71
2023-04-02T04:20:47.634Z,85.56
2023-04-02T04:35:47.502Z,84.83
2023-04-02T04:50:47.311Z,86.50
2023-04-02T05:05:47.199Z,85.31
2023-04-02T05:20:47.137Z,85.52
2023-04-02T05:35:46.878Z,83.30
2023-04-02T05:50:46.727Z,81.60
2023-04-02T06:05:46.578Z,81.81
2023-04-02T06:20:46.421Z,77.61
2023-04-02T06:35:46.293Z,77.68
2023-04-02T06:50:46.146Z,77.64
2023-04-02T07:05:45.952Z,75.95
2023-04-02T07:20:45.784Z,69.01
2023-04-02T07:35:45.656Z,67.00
2023-04-02T07:50:45.591Z,68.83
2023-04-02T08:05:45.289Z,70.76
2023-04-02T08:20:45.155Z,72.42
2023-04-02T08:35:45.118Z,69.25
2023-04-02T08:50:44.854Z,70.36
2023-04-02T09:05:44.643Z,69.90
2023-04-02T09:20:56.154Z,69.40
2023-04-02T09:35:49.190Z,66.81
2023-04-02T09:50:44.180Z,60.00
2023-04-02T10:05:44.274Z,59.31
2023-04-02T10:20:51.073Z,61.54
2023-04-02T10:35:43.712Z,63.12
2023-04-02T10:50:43.629Z,62.29
2023-04-02T11:05:43.486Z,61.83
2023-04-02T11:20:43.326Z,61.60
2023-04-02T11:35:43.097Z,63.67
2023-04-02T11:50:42.921Z,62.84
2023-04-02T12:05:42.885Z,62.08
2023-04-02T12:20:42.588Z,61.44
2023-04-02T12:35:42.498Z,58.58
2023-04-02T12:50:42.299Z,55.66
2023-04-02T13:05:42.136Z,59.70
2023-04-02T13:20:42.895Z,53.12
2023-04-02T13:35:42.326Z,51.71
2023-04-02T13:50:43.404Z,54.72
2023-04-02T14:05:41.491Z,55.85
2023-04-02T14:20:41.384Z,54.69
2023-04-02T14:35:41.205Z,55.02
2023-04-02T14:50:41.088Z,56.64
2023-04-02T15:05:40.810Z,57.57
2023-04-02T15:20:40.657Z,59.79
2023-04-02T15:35:40.964Z,58.06
2023-04-02T15:50:42.053Z,56.93
2023-04-02T16:05:40.211Z,54.61
2023-04-02T16:20:40.066Z,57.76
2023-04-02T16:35:42.438Z,57.94
2023-04-02T16:50:39.728Z,59.20
2023-04-02T17:05:39.579Z,61.87
2023-04-02T17:20:39.414Z,62.52
2023-04-02T17:35:39.306Z,65.66
2023-04-02T17:50:39.342Z,65.59
2023-04-02T18:05:39.038Z,66.44
2023-04-02T18:20:38.979Z,69.31
2023-04-02T18:35:38.665Z,72.49
2023-04-02T18:50:38.716Z,71.14
2023-04-02T19:05:38.693Z,72.31
2023-04-02T19:20:38.452Z,73.91
2023-04-02T19:35:38.385Z,73.73
2023-04-02T19:50:38.804Z,73.25
2023-04-02T20:05:38.172Z,72.24
2023-04-02T20:20:37.824Z,73.32
2023-04-02T20:35:37.469Z,74.60
2023-04-02T20:50:37.493Z,73.80
2023-04-02T21:05:37.182Z,74.63
2023-04-02T21:20:36.872Z,74.56
2023-04-02T21:35:36.921Z,75.95
2023-04-02T21:50:36.747Z,76.37
2023-04-02T22:05:36.503Z,77.24
2023-04-02T22:20:36.408Z,78.18
2023-04-02T22:35:36.124Z,79.78
2023-04-02T22:50:36.201Z,80.13
2023-04-02T23:05:35.764Z,81.95
2023-04-02T23:20:35.837Z,81.52
2023-04-02T23:35:35.471Z,81.84
2023-04-02T23:50:35.511Z,80.83
